パゴパゴ の空港の天気 - METARとTAF

パゴパゴ国際空港 ( NSTU / PPG ) - アメリカ領サモア パゴパゴ
飛行場実況気象(Metar)
観測時間09/24 16:52 SST (09/25 03:52 UTC)
風向・風速南東 7m/s
視程10km以上
天気現象
少しの雲 雲底高度 640m
全天の4割程度の雲 雲底高度 1220m
気温28.9℃
湿度72%
気圧1009.8hPa
METARNSTU 250352Z 13013KT 12SM FEW021 SCT040 29/23 A2982 RMK SLP098 T02890234
過去の天気等 Google飛行場航空写真 Wunderground天気予報

過去48時間のMETAR

飛行場予報(TAF)
発表時間: 9/24 12:33 SST (9/24 23:33 UTC)
予報対象時間: 24日13時 SST ~ 25日13時 SST
風向・風速東南東 6m/s
視程10km以上
全天の4割程度の雲 雲底高度 760m
全天の4割程度の雲 雲底高度 3050m
NSTU 242333Z 2500/2524 11011KT P6SM SCT025 SCT100